createdAt,value
2018-06-04T00:00:00.995Z,34.10
2018-06-04T00:02:29.712Z,33.60
2018-06-04T00:04:58.479Z,33.75
2018-06-04T00:07:27.249Z,33.52
2018-06-04T00:09:56.109Z,33.51
2018-06-04T00:12:24.915Z,33.25
2018-06-04T00:14:53.713Z,33.75
2018-06-04T00:17:22.541Z,33.40
2018-06-04T00:19:51.303Z,33.91
2018-06-04T00:22:20.010Z,33.74
2018-06-04T00:24:48.849Z,33.06
2018-06-04T00:27:17.602Z,33.36
2018-06-04T00:29:46.367Z,33.87
2018-06-04T00:32:15.265Z,33.69
2018-06-04T00:34:44.016Z,33.02
2018-06-04T00:37:12.920Z,33.25
2018-06-04T00:39:41.721Z,33.97
2018-06-04T00:42:10.511Z,33.38
2018-06-04T00:44:39.286Z,32.98
2018-06-04T00:47:08.002Z,33.77
2018-06-04T00:49:36.786Z,33.36
2018-06-04T00:52:05.540Z,32.88
2018-06-04T00:54:34.354Z,33.33
2018-06-04T00:57:03.177Z,33.73
2018-06-04T00:59:31.938Z,33.29
2018-06-04T01:02:01.415Z,33.77
2018-06-04T01:04:30.138Z,33.63
2018-06-04T01:06:59.112Z,33.29
2018-06-04T01:09:27.845Z,33.56
2018-06-04T01:11:56.648Z,33.70
2018-06-04T01:14:25.377Z,33.26
2018-06-04T01:16:54.217Z,32.92
2018-06-04T01:19:23.005Z,33.67
2018-06-04T01:21:51.752Z,33.29
2018-06-04T01:24:20.473Z,33.32
2018-06-04T01:26:49.191Z,33.32
2018-06-04T01:29:17.940Z,33.70
2018-06-04T01:31:46.673Z,33.32
2018-06-04T01:34:15.416Z,32.78
2018-06-04T01:36:44.181Z,33.49
2018-06-04T01:39:13.090Z,33.66
2018-06-04T01:41:41.858Z,32.95
2018-06-04T01:44:10.601Z,32.86
2018-06-04T01:46:39.516Z,33.28
2018-06-04T01:49:08.424Z,33.11
2018-06-04T01:51:37.218Z,33.68
2018-06-04T01:54:06.094Z,33.09
2018-06-04T01:56:34.833Z,33.30
2018-06-04T01:59:03.592Z,32.88
2018-06-04T02:01:32.295Z,32.88
2018-06-04T02:04:01.068Z,33.50
2018-06-04T02:06:29.873Z,33.63
2018-06-04T02:08:58.595Z,33.78
2018-06-04T02:11:27.424Z,33.49
2018-06-04T02:13:56.218Z,33.64
2018-06-04T02:16:24.974Z,33.02
2018-06-04T02:18:53.768Z,33.28
2018-06-04T02:21:22.582Z,33.41
2018-06-04T02:23:51.299Z,33.81
2018-06-04T02:26:20.065Z,33.24
2018-06-04T02:28:48.799Z,33.69
2018-06-04T02:31:17.636Z,33.45
2018-06-04T02:33:46.363Z,33.67
2018-06-04T02:36:15.227Z,33.55
2018-06-04T02:38:44.023Z,33.48
2018-06-04T02:41:12.799Z,33.25
2018-06-04T02:43:41.527Z,33.06
2018-06-04T02:46:10.563Z,32.75
2018-06-04T02:48:39.313Z,33.51
2018-06-04T02:51:08.122Z,32.67
2018-06-04T02:53:37.022Z,32.90
2018-06-04T02:56:05.799Z,32.85
2018-06-04T02:58:34.626Z,33.38
2018-06-04T03:01:03.363Z,32.67
2018-06-04T03:03:32.271Z,33.54
2018-06-04T03:06:01.017Z,32.54
2018-06-04T03:08:29.827Z,33.26
2018-06-04T03:10:58.633Z,33.06
2018-06-04T03:13:27.346Z,32.73
2018-06-04T03:15:56.113Z,32.57
2018-06-04T03:18:24.888Z,32.73
2018-06-04T03:20:53.613Z,32.86
2018-06-04T03:23:22.315Z,32.64
2018-06-04T03:25:51.112Z,33.04
2018-06-04T03:28:19.836Z,32.39
2018-06-04T03:30:48.611Z,32.61
2018-06-04T03:33:17.465Z,32.39
2018-06-04T03:35:46.207Z,32.72
2018-06-04T03:38:14.909Z,32.27
2018-06-04T03:40:43.619Z,33.17
2018-06-04T03:43:12.506Z,33.18
2018-06-04T03:45:41.209Z,32.78
2018-06-04T03:48:10.011Z,32.52
2018-06-04T03:50:38.804Z,32.93
2018-06-04T03:53:07.662Z,32.36
2018-06-04T03:55:36.371Z,32.27
2018-06-04T03:58:05.108Z,31.99
2018-06-04T04:00:33.852Z,32.26
2018-06-04T04:03:02.622Z,32.02
2018-06-04T04:05:31.834Z,32.72
2018-06-04T04:08:00.615Z,32.06
2018-06-04T04:10:29.424Z,32.47
2018-06-04T04:12:58.182Z,32.29
2018-06-04T04:15:26.919Z,31.95
2018-06-04T04:17:55.669Z,31.85
2018-06-04T04:20:24.382Z,32.63
2018-06-04T04:22:53.250Z,32.69
2018-06-04T04:25:22.040Z,31.77
2018-06-04T04:27:50.814Z,31.98
2018-06-04T04:30:19.564Z,32.47
2018-06-04T04:32:49.424Z,31.67
2018-06-04T04:35:18.163Z,31.78
2018-06-04T04:37:46.918Z,31.72
2018-06-04T04:40:15.687Z,32.31
2018-06-04T04:42:44.410Z,31.59
2018-06-04T04:45:13.167Z,31.68
2018-06-04T04:47:41.970Z,31.70
2018-06-04T04:50:11.149Z,32.22
2018-06-04T04:52:39.904Z,31.38
2018-06-04T04:55:08.649Z,31.79
2018-06-04T04:57:37.406Z,31.81
2018-06-04T05:00:06.298Z,31.25
2018-06-04T05:02:35.046Z,31.45
2018-06-04T05:05:03.799Z,31.95
2018-06-04T05:07:32.614Z,31.66
2018-06-04T05:10:01.379Z,31.40
2018-06-04T05:12:30.209Z,31.74
2018-06-04T05:14:58.938Z,31.02
2018-06-04T05:17:27.621Z,31.27
2018-06-04T05:19:56.399Z,30.96
2018-06-04T05:22:25.167Z,31.55
2018-06-04T05:24:53.922Z,31.51
2018-06-04T05:27:22.760Z,31.48
2018-06-04T05:29:51.554Z,31.89
2018-06-04T05:32:20.342Z,31.74
2018-06-04T05:34:49.069Z,31.60
2018-06-04T05:37:17.950Z,31.67
2018-06-04T05:39:46.698Z,31.61
2018-06-04T05:42:15.610Z,31.59
2018-06-04T05:44:44.324Z,31.40
2018-06-04T05:47:13.059Z,31.23
2018-06-04T05:49:41.824Z,30.85
2018-06-04T05:52:10.795Z,31.42
2018-06-04T05:54:39.559Z,30.90
2018-06-04T05:57:08.633Z,30.58
2018-06-04T05:59:38.814Z,31.22
2018-06-04T06:02:08.963Z,31.15
2018-06-04T06:04:37.856Z,30.82
2018-06-04T06:07:06.606Z,31.21
2018-06-04T06:09:35.530Z,30.60
2018-06-04T06:12:04.271Z,30.56
2018-06-04T06:14:33.091Z,30.88
2018-06-04T06:17:01.843Z,31.09
2018-06-04T06:19:30.556Z,30.83
2018-06-04T06:21:59.429Z,30.44
2018-06-04T06:24:28.116Z,31.33
2018-06-04T06:26:56.830Z,31.39
2018-06-04T06:29:25.717Z,30.67
2018-06-04T06:31:54.534Z,31.19
2018-06-04T06:34:23.390Z,31.03
2018-06-04T06:36:52.109Z,31.06
2018-06-04T06:39:20.833Z,31.33
2018-06-04T06:41:50.130Z,31.51
2018-06-04T06:44:18.898Z,31.32
2018-06-04T06:46:47.620Z,30.98
2018-06-04T06:49:16.374Z,31.09
2018-06-04T06:51:45.105Z,30.97
2018-06-04T06:54:13.895Z,31.01
2018-06-04T06:56:42.663Z,30.61
2018-06-04T06:59:11.350Z,30.98
2018-06-04T07:01:40.090Z,30.93
2018-06-04T07:04:08.799Z,30.35
2018-06-04T07:06:38.930Z,30.79
2018-06-04T07:09:09.290Z,30.66
2018-06-04T07:11:38.038Z,30.16
2018-06-04T07:14:06.755Z,30.39
2018-06-04T07:16:36.106Z,30.30
2018-06-04T07:19:04.921Z,30.13
2018-06-04T07:21:33.767Z,29.85
2018-06-04T07:24:02.519Z,30.08
2018-06-04T07:26:31.268Z,30.18
2018-06-04T07:28:59.982Z,30.59
2018-06-04T07:31:28.698Z,30.17
2018-06-04T07:33:57.413Z,30.37
2018-06-04T07:36:26.128Z,30.73
2018-06-04T07:38:54.861Z,30.45
2018-06-04T07:41:23.697Z,31.29
2018-06-04T07:43:52.429Z,30.99
2018-06-04T07:46:21.117Z,30.82
2018-06-04T07:48:49.929Z,30.60
2018-06-04T07:51:18.634Z,30.77
2018-06-04T07:53:47.508Z,31.12
2018-06-04T07:56:16.372Z,30.69
2018-06-04T07:58:47.162Z,30.84
2018-06-04T08:01:16.133Z,30.90
2018-06-04T08:03:44.865Z,30.90
2018-06-04T08:06:13.635Z,30.62
2018-06-04T08:08:42.649Z,30.37
2018-06-04T08:11:11.563Z,30.31
2018-06-04T08:13:40.418Z,29.95
2018-06-04T08:16:09.255Z,29.86
2018-06-04T08:18:38.023Z,29.88
2018-06-04T08:21:06.932Z,30.19
2018-06-04T08:23:36.331Z,30.55
2018-06-04T08:26:05.092Z,30.24
2018-06-04T08:28:33.963Z,29.65
2018-06-04T08:31:02.837Z,30.08
2018-06-04T08:33:31.685Z,30.34
2018-06-04T08:36:00.564Z,29.72
2018-06-04T08:38:29.391Z,30.00
2018-06-04T08:40:58.154Z,29.91
2018-06-04T08:43:26.927Z,30.21
2018-06-04T08:45:56.119Z,29.29
2018-06-04T08:48:24.907Z,29.65
2018-06-04T08:50:54.569Z,29.34
2018-06-04T08:53:23.294Z,30.06
2018-06-04T08:55:52.361Z,29.65
2018-06-04T08:58:21.075Z,29.42
2018-06-04T09:00:49.871Z,29.47
2018-06-04T09:03:18.663Z,29.58
2018-06-04T09:05:47.497Z,29.37
2018-06-04T09:08:16.369Z,29.27
2018-06-04T09:10:45.098Z,29.33
2018-06-04T09:13:13.884Z,29.65
2018-06-04T09:15:42.709Z,29.50
2018-06-04T09:18:11.547Z,29.37
2018-06-04T09:20:40.280Z,29.44
2018-06-04T09:23:09.009Z,29.36
2018-06-04T09:25:37.843Z,28.65
2018-06-04T09:28:06.588Z,28.60
2018-06-04T09:30:35.307Z,28.91
2018-06-04T09:33:03.992Z,28.83
2018-06-04T09:35:32.739Z,28.84
2018-06-04T09:38:01.418Z,28.23
2018-06-04T09:40:30.150Z,29.33
2018-06-04T09:42:58.959Z,28.91
2018-06-04T09:45:27.637Z,28.85
2018-06-04T09:47:56.382Z,28.96
2018-06-04T09:50:25.135Z,29.20
2018-06-04T09:52:53.812Z,28.99
2018-06-04T09:55:22.519Z,28.47
2018-06-04T09:57:51.279Z,28.66
2018-06-04T10:00:25.238Z,28.80
2018-06-04T10:02:53.986Z,28.84
2018-06-04T10:05:22.685Z,28.58
2018-06-04T10:07:51.400Z,28.55
2018-06-04T10:10:20.099Z,28.49
2018-06-04T10:12:48.848Z,28.72
2018-06-04T10:15:17.604Z,28.10
2018-06-04T10:17:46.374Z,28.15
2018-06-04T10:20:15.216Z,28.38
2018-06-04T10:22:43.974Z,28.15
2018-06-04T10:25:12.721Z,28.34
2018-06-04T10:27:41.441Z,27.91
2018-06-04T10:30:10.145Z,28.17
2018-06-04T10:32:38.885Z,28.59
2018-06-04T10:35:07.641Z,28.58
2018-06-04T10:37:36.644Z,27.82
2018-06-04T10:40:05.532Z,27.76
2018-06-04T10:42:34.302Z,27.80
2018-06-04T10:45:03.012Z,28.21
2018-06-04T10:47:31.762Z,27.75
2018-06-04T10:50:00.439Z,28.08
2018-06-04T10:52:29.192Z,28.43
2018-06-04T10:54:57.951Z,28.37
2018-06-04T10:57:26.802Z,27.64
2018-06-04T10:59:55.531Z,27.80
2018-06-04T11:02:24.399Z,27.58
2018-06-04T11:04:53.125Z,28.23
2018-06-04T11:07:21.898Z,27.94
2018-06-04T11:09:50.694Z,27.50
2018-06-04T11:12:19.471Z,28.06
2018-06-04T11:14:48.190Z,27.57
2018-06-04T11:17:16.937Z,27.50
2018-06-04T11:19:45.693Z,27.91
2018-06-04T11:22:14.437Z,27.53
2018-06-04T11:24:43.226Z,28.16
2018-06-04T11:27:11.970Z,27.26
2018-06-04T11:29:40.783Z,27.87
2018-06-04T11:32:09.548Z,27.62
2018-06-04T11:34:38.300Z,27.94
2018-06-04T11:37:07.025Z,27.43
2018-06-04T11:39:35.941Z,27.46
2018-06-04T11:42:04.670Z,27.62
2018-06-04T11:44:33.380Z,27.89
2018-06-04T11:47:02.162Z,27.38
2018-06-04T11:49:30.876Z,27.58
2018-06-04T11:51:59.667Z,27.56
2018-06-04T11:54:28.367Z,27.59
2018-06-04T11:56:57.098Z,27.52
2018-06-04T11:59:25.823Z,26.88
2018-06-04T12:01:54.529Z,27.74
2018-06-04T12:04:23.218Z,27.22
2018-06-04T12:06:51.913Z,27.28
2018-06-04T12:09:20.665Z,27.16
2018-06-04T12:11:49.483Z,27.67
2018-06-04T12:14:18.185Z,27.67
2018-06-04T12:16:46.970Z,27.51
2018-06-04T12:19:16.653Z,27.62
2018-06-04T12:21:45.395Z,26.82
2018-06-04T12:24:14.180Z,27.30
2018-06-04T12:26:43.075Z,27.55
2018-06-04T12:29:11.886Z,27.44
2018-06-04T12:31:40.638Z,27.49
2018-06-04T12:34:09.394Z,27.02
2018-06-04T12:36:38.094Z,27.21
2018-06-04T12:39:09.157Z,27.42
2018-06-04T12:41:37.945Z,27.42
2018-06-04T12:44:06.735Z,27.08
2018-06-04T12:46:35.471Z,26.65
2018-06-04T12:49:04.292Z,26.93
2018-06-04T12:51:33.072Z,26.84
2018-06-04T12:54:01.825Z,26.99
2018-06-04T12:56:30.579Z,26.84
2018-06-04T12:58:59.394Z,26.80
2018-06-04T13:01:28.116Z,27.35
2018-06-04T13:03:56.924Z,27.45
2018-06-04T13:06:25.633Z,27.20
2018-06-04T13:08:54.461Z,27.27
2018-06-04T13:11:23.188Z,27.42
2018-06-04T13:13:51.979Z,26.91
2018-06-04T13:16:20.799Z,26.39
2018-06-04T13:18:49.600Z,27.43
2018-06-04T13:21:18.284Z,26.57
2018-06-04T13:23:47.064Z,27.00
2018-06-04T13:26:15.888Z,26.91
2018-06-04T13:28:44.627Z,27.32
2018-06-04T13:31:13.380Z,27.11
2018-06-04T13:33:42.229Z,27.13
2018-06-04T13:36:10.969Z,26.86
2018-06-04T13:38:39.707Z,26.76
2018-06-04T13:41:08.438Z,26.29
2018-06-04T13:43:37.241Z,26.39
2018-06-04T13:46:06.001Z,26.67
2018-06-04T13:48:34.730Z,26.66
2018-06-04T13:51:03.590Z,26.76
2018-06-04T13:53:32.444Z,26.96
2018-06-04T13:56:01.363Z,26.06
2018-06-04T13:58:30.163Z,26.23
2018-06-04T14:00:58.930Z,26.06
2018-06-04T14:03:27.684Z,26.96
2018-06-04T14:05:56.484Z,26.70
2018-06-04T14:08:25.256Z,26.83
2018-06-04T14:10:54.001Z,26.40
2018-06-04T14:13:22.734Z,26.78
2018-06-04T14:15:51.492Z,26.34
2018-06-04T14:18:20.246Z,26.18
2018-06-04T14:20:49.001Z,26.48
2018-06-04T14:23:17.835Z,26.29
2018-06-04T14:25:46.639Z,26.73
2018-06-04T14:28:15.565Z,26.66
2018-06-04T14:30:44.349Z,26.30
2018-06-04T14:33:13.075Z,26.40
2018-06-04T14:35:41.820Z,26.47
2018-06-04T14:38:10.611Z,26.15
2018-06-04T14:40:39.402Z,26.11
2018-06-04T14:43:08.156Z,26.50
2018-06-04T14:45:38.022Z,26.54
2018-06-04T14:48:06.830Z,26.31
2018-06-04T14:50:35.609Z,26.03
2018-06-04T14:53:04.350Z,26.50
2018-06-04T14:55:33.153Z,25.60
2018-06-04T14:58:01.913Z,26.45
2018-06-04T15:00:30.669Z,26.09
2018-06-04T15:02:59.410Z,26.44
2018-06-04T15:05:28.270Z,26.44
2018-06-04T15:07:57.315Z,25.96
2018-06-04T15:10:26.122Z,25.50
2018-06-04T15:12:54.867Z,25.97
2018-06-04T15:15:23.629Z,25.96
2018-06-04T15:17:52.451Z,25.97
2018-06-04T15:20:21.237Z,26.33
2018-06-04T15:22:50.069Z,26.10
2018-06-04T15:25:18.808Z,25.45
2018-06-04T15:27:47.551Z,25.93
2018-06-04T15:30:16.403Z,25.70
2018-06-04T15:32:45.174Z,25.83
2018-06-04T15:35:13.946Z,26.09
2018-06-04T15:37:42.753Z,26.34
2018-06-04T15:40:11.546Z,26.18
2018-06-04T15:42:40.282Z,25.90
2018-06-04T15:45:09.073Z,25.58
2018-06-04T15:47:37.897Z,25.54
2018-06-04T15:50:06.651Z,26.19
2018-06-04T15:52:35.424Z,25.63
2018-06-04T15:55:04.316Z,26.34
2018-06-04T15:57:34.431Z,26.19
2018-06-04T16:00:03.232Z,26.25
2018-06-04T16:02:31.975Z,26.10
2018-06-04T16:05:00.743Z,25.62
2018-06-04T16:07:29.521Z,25.45
2018-06-04T16:09:58.305Z,26.24
2018-06-04T16:12:27.052Z,25.54
2018-06-04T16:14:55.817Z,25.88
2018-06-04T16:17:24.637Z,25.77
2018-06-04T16:19:53.383Z,25.85
2018-06-04T16:22:22.958Z,26.20
2018-06-04T16:24:51.749Z,25.96
2018-06-04T16:27:20.489Z,26.05
2018-06-04T16:29:49.218Z,25.97
2018-06-04T16:32:18.012Z,25.68
2018-06-04T16:34:46.881Z,25.97
2018-06-04T16:37:15.665Z,26.10
2018-06-04T16:39:44.472Z,25.93
2018-06-04T16:42:13.264Z,26.09
2018-06-04T16:44:41.985Z,25.39
2018-06-04T16:47:10.725Z,25.33
2018-06-04T16:49:39.490Z,25.56
2018-06-04T16:52:08.231Z,25.59
2018-06-04T16:54:36.988Z,25.39
2018-06-04T16:57:05.920Z,25.62
2018-06-04T16:59:34.811Z,25.83
2018-06-04T17:02:03.853Z,25.60
2018-06-04T17:04:32.954Z,25.79
2018-06-04T17:07:01.825Z,25.70
2018-06-04T17:09:30.701Z,26.25
2018-06-04T17:11:59.742Z,25.96
2018-06-04T17:14:28.696Z,26.03
2018-06-04T17:16:57.710Z,26.07
2018-06-04T17:19:26.444Z,26.38
2018-06-04T17:21:55.174Z,26.07
2018-06-04T17:24:23.896Z,26.29
2018-06-04T17:26:52.637Z,25.74
2018-06-04T17:29:21.381Z,25.97
2018-06-04T17:31:50.977Z,26.20
2018-06-04T17:34:19.774Z,26.15
2018-06-04T17:36:48.562Z,25.61
2018-06-04T17:39:17.293Z,26.26
2018-06-04T17:41:46.055Z,26.24
2018-06-04T17:44:14.850Z,26.08
2018-06-04T17:46:43.682Z,26.28
2018-06-04T17:49:12.487Z,25.97
2018-06-04T17:51:41.263Z,25.78
2018-06-04T17:54:10.140Z,26.00
2018-06-04T17:56:38.949Z,25.58
2018-06-04T17:59:08.270Z,25.36
2018-06-04T18:01:37.496Z,25.67
2018-06-04T18:04:06.364Z,25.25
2018-06-04T18:06:35.211Z,25.53
2018-06-04T18:09:05.003Z,25.66
2018-06-04T18:11:33.789Z,26.01
2018-06-04T18:14:02.696Z,25.75
2018-06-04T18:16:31.456Z,25.77
2018-06-04T18:19:00.248Z,26.20
2018-06-04T18:21:29.057Z,25.73
2018-06-04T18:23:57.965Z,25.41
2018-06-04T18:26:26.818Z,25.48
2018-06-04T18:28:55.755Z,25.46
2018-06-04T18:31:24.519Z,25.78
2018-06-04T18:33:53.433Z,25.51
2018-06-04T18:36:22.246Z,26.18
2018-06-04T18:38:51.014Z,25.60
2018-06-04T18:41:19.758Z,25.82
2018-06-04T18:43:48.580Z,25.91
2018-06-04T18:46:17.502Z,25.76
2018-06-04T18:48:46.260Z,25.56
2018-06-04T18:51:15.027Z,25.56
2018-06-04T18:53:43.792Z,25.56
2018-06-04T18:56:12.654Z,26.34
2018-06-04T18:58:41.474Z,25.79
2018-06-04T19:01:10.286Z,25.39
2018-06-04T19:03:39.159Z,25.57
2018-06-04T19:06:08.058Z,26.15
2018-06-04T19:08:36.895Z,25.50
2018-06-04T19:11:05.688Z,25.36
2018-06-04T19:13:34.526Z,26.16
2018-06-04T19:16:03.603Z,26.27
2018-06-04T19:18:32.435Z,26.69
2018-06-04T19:21:01.259Z,25.82
2018-06-04T19:23:30.013Z,26.82
2018-06-04T19:25:58.837Z,26.14
2018-06-04T19:28:27.687Z,26.68
2018-06-04T19:30:56.589Z,26.59
2018-06-04T19:33:25.397Z,26.17
2018-06-04T19:35:54.132Z,26.30
2018-06-04T19:38:22.997Z,26.59
2018-06-04T19:40:56.193Z,26.16
2018-06-04T19:43:25.003Z,26.86
2018-06-04T19:45:53.845Z,26.81
2018-06-04T19:48:22.654Z,26.02
2018-06-04T19:50:51.473Z,26.78
2018-06-04T19:53:20.239Z,26.31
2018-06-04T19:55:49.090Z,26.35
2018-06-04T19:58:17.830Z,26.26
2018-06-04T20:00:46.630Z,26.39
2018-06-04T20:03:15.414Z,26.55
2018-06-04T20:05:44.135Z,26.71
2018-06-04T20:08:12.966Z,26.09
2018-06-04T20:10:41.729Z,26.23
2018-06-04T20:13:10.454Z,26.84
2018-06-04T20:15:39.230Z,25.95
2018-06-04T20:18:08.021Z,26.31
2018-06-04T20:20:36.851Z,26.54
2018-06-04T20:23:05.682Z,25.94
2018-06-04T20:25:34.475Z,26.52
2018-06-04T20:41:03.621Z,26.72
2018-06-04T20:43:32.363Z,26.11
2018-06-04T20:46:01.281Z,26.90
2018-06-04T20:48:30.101Z,26.31
2018-06-04T20:50:58.871Z,26.90
2018-06-04T20:53:27.614Z,26.38
2018-06-04T20:55:56.383Z,26.42
2018-06-04T20:58:25.221Z,26.40
2018-06-04T21:00:53.950Z,26.55
2018-06-04T21:03:22.693Z,26.45
2018-06-04T21:05:51.504Z,26.59
2018-06-04T21:08:20.254Z,25.72
2018-06-04T21:10:48.985Z,26.21
2018-06-04T21:13:17.799Z,25.58
2018-06-04T21:15:46.536Z,26.39
2018-06-04T21:18:15.253Z,26.21
2018-06-04T21:20:44.051Z,26.14
2018-06-04T21:23:12.891Z,25.52
2018-06-04T21:25:41.638Z,26.18
2018-06-04T21:28:10.479Z,25.96
2018-06-04T21:30:39.328Z,26.07
2018-06-04T21:33:08.122Z,26.02
2018-06-04T21:35:37.392Z,25.82
2018-06-04T21:38:06.118Z,25.69
2018-06-04T21:40:34.851Z,25.65
2018-06-04T21:43:03.660Z,25.67
2018-06-04T21:45:32.687Z,25.87
2018-06-04T21:48:01.741Z,25.23
2018-06-04T21:50:30.645Z,26.07
2018-06-04T21:52:59.451Z,25.33
2018-06-04T21:55:28.207Z,25.98
2018-06-04T21:57:56.907Z,25.79
2018-06-04T22:00:25.660Z,25.91
2018-06-04T22:02:54.383Z,25.81
2018-06-04T22:05:23.107Z,25.59
2018-06-04T22:07:51.882Z,25.88
2018-06-04T22:10:20.636Z,25.63
2018-06-04T22:12:49.370Z,25.62
2018-06-04T22:15:18.139Z,25.49
2018-06-04T22:17:46.961Z,25.68
2018-06-04T22:20:15.704Z,25.16
2018-06-04T22:22:44.682Z,25.40
2018-06-04T22:25:13.390Z,24.66
2018-06-04T22:27:42.158Z,25.43
2018-06-04T22:30:10.952Z,24.96
2018-06-04T22:32:39.753Z,25.27
2018-06-04T22:35:08.476Z,25.19
2018-06-04T22:37:37.287Z,25.55
2018-06-04T22:40:06.034Z,24.68
2018-06-04T22:42:34.798Z,25.59
2018-06-04T22:45:03.595Z,24.69
2018-06-04T22:47:32.345Z,25.38
2018-06-04T22:50:01.023Z,24.80
2018-06-04T22:52:29.739Z,24.61
2018-06-04T22:54:58.485Z,24.66
2018-06-04T22:57:27.215Z,24.60
2018-06-04T22:59:55.897Z,25.08
2018-06-04T23:02:24.620Z,25.04
2018-06-04T23:04:53.340Z,24.44
2018-06-04T23:07:22.114Z,24.55
2018-06-04T23:09:50.924Z,24.39
2018-06-04T23:12:19.687Z,24.27
2018-06-04T23:14:48.405Z,24.47
2018-06-04T23:17:17.132Z,24.68
2018-06-04T23:19:45.891Z,24.70
2018-06-04T23:22:14.617Z,24.18
2018-06-04T23:24:43.311Z,24.45
2018-06-04T23:27:12.061Z,24.27
2018-06-04T23:29:40.814Z,24.43
2018-06-04T23:32:09.566Z,24.90
2018-06-04T23:34:38.335Z,24.36
2018-06-04T23:37:07.049Z,24.08
2018-06-04T23:39:35.791Z,24.89
2018-06-04T23:42:04.502Z,24.25
2018-06-04T23:44:33.243Z,24.65
2018-06-04T23:47:02.046Z,24.20
2018-06-04T23:49:30.799Z,24.05
2018-06-04T23:51:59.539Z,23.74
2018-06-04T23:54:28.213Z,23.92
2018-06-04T23:56:56.886Z,23.92
2018-06-04T23:59:25.624Z,23.84
